Time;durP1;ratioP1;P1;durP2;ratioP2;P2;SDS_P1;SDS_P2;PMS_P1;PMS_P2;Temp;Humidity;BMP_temperature;BMP_pressure;BME280_temperature;BME280_humidity;BME280_pressure;Samples;Min_cycle;Max_cycle;Signal;HPM_P1;HPM_P2
2023/02/19 00:01:07;;;;;;;47.40;21.08;;;11.00;99.90;;;;;;5077214;28;20032;-93
2023/02/19 00:03:27;;;;;;;50.90;21.27;;;11.00;99.90;;;;;;5059733;28;20059;-94
2023/02/19 00:06:11;;;;;;;50.72;22.90;;;11.00;99.90;;;;;;5030792;28;20028;-93
2023/02/19 00:08:40;;;;;;;58.78;22.35;;;10.90;99.90;;;;;;5060195;28;20469;-93
2023/02/19 00:11:32;;;;;;;60.83;23.05;;;10.90;99.90;;;;;;5041051;28;20028;-93
2023/02/19 00:14:04;;;;;;;63.03;22.85;;;11.00;99.90;;;;;;5076268;28;20404;-93
2023/02/19 00:16:46;;;;;;;51.17;22.25;;;11.00;99.90;;;;;;5057406;28;20020;-91
2023/02/19 00:19:17;;;;;;;56.28;23.85;;;10.90;99.90;;;;;;5057909;28;20048;-92
2023/02/19 00:21:49;;;;;;;71.13;24.98;;;10.90;99.90;;;;;;5057612;28;20107;-92
2023/02/19 00:24:20;;;;;;;63.17;24.33;;;11.00;99.90;;;;;;5057504;28;20025;-93
2023/02/19 00:26:49;;;;;;;59.55;24.52;;;11.00;99.90;;;;;;5060497;28;20029;-93
2023/02/19 00:29:23;;;;;;;57.40;25.48;;;11.00;99.90;;;;;;5080587;28;20081;-93
2023/02/19 00:32:20;;;;;;;;;;;;;;;;;;;;;
2023/02/19 00:34:47;;;;;;;59.83;26.02;;;11.00;99.90;;;;;;5076607;28;20032;-91
2023/02/19 00:37:49;;;;;;;;;;;;;;;;;;;;;
2023/02/19 00:40:25;;;;;;;;;;;;;;;;;;;;;
2023/02/19 00:43:19;;;;;;;;;;;;;;;;;;;;;
2023/02/19 00:45:50;;;;;;;55.83;27.38;;;10.90;99.90;;;;;;5063269;28;20448;-93
2023/02/19 00:48:23;;;;;;;;;;;11.00;99.90;;;;;;5060652;28;20047;-94
2023/02/19 00:51:05;;;;;;;54.50;25.13;;;11.00;99.90;;;;;;5062368;28;19909;-93
2023/02/19 00:53:39;;;;;;;55.65;25.73;;;10.90;99.90;;;;;;5061086;28;20400;-93
2023/02/19 00:56:07;;;;;;;52.92;25.80;;;10.90;99.90;;;;;;5047022;28;20115;-94
2023/02/19 00:59:05;;;;;;;63.13;26.80;;;10.90;99.90;;;;;;5075287;28;20020;-91
2023/02/19 01:01:37;;;;;;;58.80;24.92;;;10.90;99.90;;;;;;5069378;28;20029;-95
2023/02/19 01:14:36;;;;;;;61.08;26.45;;;10.90;99.90;;;;;;5018234;28;20155;-93
2023/02/19 01:17:27;;;;;;;57.25;26.83;;;10.90;99.90;;;;;;5059761;28;20030;-93
2023/02/19 01:20:02;;;;;;;59.47;26.77;;;10.90;99.90;;;;;;5083194;28;20038;-94
2023/02/19 01:22:41;;;;;;;53.40;26.15;;;10.90;99.90;;;;;;5047618;28;20092;-93
2023/02/19 01:25:47;;;;;;;56.00;26.25;;;10.80;99.90;;;;;;5063898;28;20113;-95
2023/02/19 01:31:20;;;;;;;;;;;;;;;;;;;;;
2023/02/19 01:33:54;;;;;;;51.70;22.92;;;10.80;99.90;;;;;;5079361;28;20051;-92
2023/02/19 01:36:25;;;;;;;55.15;23.33;;;10.70;99.90;;;;;;5061843;28;20078;-93
2023/02/19 01:42:35;;;;;;;48.53;23.17;;;10.70;99.90;;;;;;5034448;28;20483;-92
2023/02/19 01:45:45;;;;;;;53.38;25.05;;;10.70;99.90;;;;;;5060767;28;20029;-92
2023/02/19 01:48:27;;;;;;;;;;;;;;;;;;;;;
2023/02/19 01:51:32;;;;;;;52.58;21.15;;;10.70;99.90;;;;;;5079129;28;20032;-93
2023/02/19 01:54:11;;;;;;;48.78;20.45;;;10.70;99.90;;;;;;5059403;28;20040;-93
2023/02/19 01:56:49;;;;;;;47.03;16.98;;;10.70;99.90;;;;;;5061266;28;20032;-93
2023/02/19 02:02:31;;;;;;;;;;;;;;;;;;;;;
2023/02/19 02:05:11;;;;;;;;;;;;;;;;;;;;;
2023/02/19 02:10:45;;;;;;;47.38;14.05;;;10.70;99.90;;;;;;5062937;28;20404;-93
2023/02/19 02:13:36;;;;;;;;;;;;;;;;;;;;;
2023/02/19 02:16:31;;;;;;;;;;;;;;;;;;;;;
2023/02/19 02:19:26;;;;;;;44.65;13.20;;;10.70;99.90;;;;;;5077657;28;20008;-93
2023/02/19 02:25:13;;;;;;;43.47;12.35;;;10.70;99.90;;;;;;5063372;28;20033;-93
2023/02/19 02:28:00;;;;;;;;;;;;;;;;;;;;;
2023/02/19 02:30:51;;;;;;;44.83;12.48;;;10.60;99.90;;;;;;5077126;28;20030;-91
2023/02/19 02:33:38;;;;;;;;;;;10.60;99.90;;;;;;5052981;28;20035;-92
2023/02/19 02:36:36;;;;;;;41.47;11.88;;;10.60;99.90;;;;;;5064555;28;20019;-93
2023/02/19 02:39:22;;;;;;;;;;;;;;;;;;;;;
2023/02/19 02:42:26;;;;;;;38.20;13.15;;;10.60;99.90;;;;;;5061809;28;20112;-93
2023/02/19 02:48:10;;;;;;;;;;;;;;;;;;;;;
2023/02/19 02:51:16;;;;;;;46.92;12.88;;;10.60;99.90;;;;;;5077604;28;20190;-92
2023/02/19 02:57:09;;;;;;;;;;;;;;;;;;;;;
2023/02/19 02:59:47;;;;;;;39.58;10.68;;;10.60;99.90;;;;;;5076699;28;20024;-93
2023/02/19 03:02:42;;;;;;;32.65;10.68;;;10.60;99.90;;;;;;5058967;28;20032;-94
2023/02/19 03:27:53;;;;;;;39.75;10.73;;;10.60;99.90;;;;;;5064175;28;20055;-93
2023/02/19 03:34:37;;;;;;;;;;;;;;;;;;;;;
2023/02/19 03:37:42;;;;;;;30.48;10.15;;;10.50;99.90;;;;;;5075641;28;20028;-92
2023/02/19 03:44:41;;;;;;;31.27;10.52;;;10.50;99.90;;;;;;5069932;28;20025;-92
2023/02/19 03:47:58;;;;;;;28.80;10.70;;;10.50;99.90;;;;;;5073577;28;20028;-95
2023/02/19 03:54:03;;;;;;;;;;;10.50;99.90;;;;;;5082175;28;20024;-92
2023/02/19 03:57:05;;;;;;;23.35;9.85;;;10.50;99.90;;;;;;5095235;28;19905;-94
2023/02/19 04:00:13;;;;;;;;;;;;;;;;;;;;;
2023/02/19 04:03:13;;;;;;;28.83;10.77;;;10.50;99.90;;;;;;5019384;28;20145;-92
2023/02/19 04:06:35;;;;;;;;;;;;;;;;;;;;;
2023/02/19 04:20:00;;;;;;;;;;;;;;;;;;;;;
2023/02/19 04:22:48;;;;;;;26.55;9.00;;;10.50;99.90;;;;;;5065312;28;20491;-93
2023/02/19 04:25:38;;;;;;;23.80;8.75;;;10.50;99.90;;;;;;5057778;28;20032;-93
2023/02/19 04:32:07;;;;;;;;;;;;;;;;;;;;;
2023/02/19 04:35:07;;;;;;;;;;;;;;;;;;;;;
2023/02/19 04:38:01;;;;;;;20.73;8.73;;;10.50;99.90;;;;;;5095943;28;20088;-94
2023/02/19 04:41:10;;;;;;;22.27;8.23;;;10.50;99.90;;;;;;5066321;28;20062;-93
2023/02/19 04:53:56;;;;;;;;;;;;;;;;;;;;;
2023/02/19 05:06:57;;;;;;;27.95;9.10;;;10.50;99.90;;;;;;4961169;28;20094;-93
2023/02/19 05:13:23;;;;;;;;;;;;;;;;;;;;;
2023/02/19 05:16:16;;;;;;;19.00;8.68;;;10.40;99.90;;;;;;5016495;28;20062;-93
2023/02/19 05:32:52;;;;;;;;;;;;;;;;;;;;;
2023/02/19 05:49:04;;;;;;;26.70;10.13;;;10.40;99.90;;;;;;4883048;28;20058;-92
2023/02/19 05:59:08;;;;;;;;;;;;;;;;;;;;;
2023/02/19 06:01:42;;;;;;;;;;;;;;;;;;;;;
2023/02/19 06:04:20;;;;;;;;;;;;;;;;;;;;;
2023/02/19 06:10:39;;;;;;;;;;;;;;;;;;;;;
2023/02/19 06:24:15;;;;;;;;;;;;;;;;;;;;;
2023/02/19 06:27:27;;;;;;;30.52;10.68;;;10.30;99.90;;;;;;4931631;28;20066;-92
2023/02/19 06:30:17;;;;;;;25.58;9.43;;;10.30;99.90;;;;;;4993399;28;20034;-92
2023/02/19 06:33:46;;;;;;;;;;;;;;;;;;;;;
2023/02/19 06:42:59;;;;;;;30.80;9.35;;;10.30;99.90;;;;;;4997564;28;20057;-92
2023/02/19 06:46:03;;;;;;;;;;;;;;;;;;;;;
2023/02/19 06:49:35;;;;;;;;;;;;;;;;;;;;;
2023/02/19 06:52:34;;;;;;;;;;;;;;;;;;;;;
2023/02/19 07:02:40;;;;;;;;;;;;;;;;;;;;;
2023/02/19 07:05:38;;;;;;;;;;;;;;;;;;;;;
2023/02/19 07:11:39;;;;;;;19.08;8.65;;;10.20;99.90;;;;;;5075149;28;20086;-92
2023/02/19 07:14:55;;;;;;;23.33;8.25;;;10.20;99.90;;;;;;5056833;28;20041;-91
2023/02/19 07:18:09;;;;;;;;;;;;;;;;;;;;;
2023/02/19 07:21:10;;;;;;;;;;;;;;;;;;;;;
2023/02/19 07:24:20;;;;;;;;;;;;;;;;;;;;;
2023/02/19 07:27:02;;;;;;;;;;;;;;;;;;;;;
2023/02/19 07:30:06;;;;;;;;;;;;;;;;;;;;;
2023/02/19 07:36:42;;;;;;;;;;;;;;;;;;;;;
2023/02/19 07:39:49;;;;;;;20.13;8.52;;;10.30;99.90;;;;;;5063753;28;20135;-93
2023/02/19 07:43:03;;;;;;;;;;;;;;;;;;;;;
2023/02/19 07:46:05;;;;;;;;;;;;;;;;;;;;;
2023/02/19 07:49:12;;;;;;;;;;;;;;;;;;;;;
2023/02/19 07:52:16;;;;;;;;;;;;;;;;;;;;;
2023/02/19 07:55:12;;;;;;;;;;;;;;;;;;;;;
2023/02/19 07:58:22;;;;;;;22.25;9.70;;;10.20;99.90;;;;;;5088900;28;20048;-92
2023/02/19 08:04:55;;;;;;;;;;;;;;;;;;;;;
2023/02/19 08:07:47;;;;;;;;;;;;;;;;;;;;;
2023/02/19 08:14:19;;;;;;;21.85;10.48;;;10.20;99.90;;;;;;5091333;28;20062;-92
2023/02/19 08:20:41;;;;;;;;;;;;;;;;;;;;;
2023/02/19 08:30:13;;;;;;;;;;;;;;;;;;;;;
2023/02/19 08:33:11;;;;;;;20.38;9.77;;;10.30;99.90;;;;;;5061420;28;20020;-92
2023/02/19 08:36:09;;;;;;;;;;;;;;;;;;;;;
2023/02/19 08:42:04;;;;;;;22.17;9.80;;;10.30;99.90;;;;;;5064594;28;20028;-93
2023/02/19 08:58:31;;;;;;;20.65;8.60;;;10.30;99.90;;;;;;5048421;28;20360;-92
2023/02/19 09:11:18;;;;;;;;;;;;;;;;;;;;;
2023/02/19 09:14:32;;;;;;;;;;;;;;;;;;;;;
2023/02/19 09:17:28;;;;;;;25.42;10.32;;;10.40;99.90;;;;;;5061065;28;20124;-93
2023/02/19 09:30:06;;;;;;;25.10;9.95;;;10.40;99.90;;;;;;5056893;28;19912;-92
2023/02/19 09:47:12;;;;;;;;;;;;;;;;;;;;;
2023/02/19 09:53:05;;;;;;;;;;;10.50;99.90;;;;;;4942475;29;20559;-92
2023/02/19 09:56:30;;;;;;;;;;;;;;;;;;;;;
2023/02/19 09:59:16;;;;;;;22.95;12.27;;;10.50;99.90;;;;;;4994529;28;20105;-92
2023/02/19 10:34:06;;;;;;;22.77;8.30;;;10.70;99.90;;;;;;4922525;28;20039;-94
2023/02/19 10:40:59;;;;;;;12.85;5.63;;;10.70;99.90;;;;;;4940095;29;20063;-94
2023/02/19 10:44:05;;;;;;;;;;;;;;;;;;;;;
2023/02/19 10:47:13;;;;;;;16.85;6.60;;;10.60;99.90;;;;;;4993159;28;20042;-95
2023/02/19 10:50:12;;;;;;;;;;;;;;;;;;;;;
2023/02/19 10:56:07;;;;;;;14.45;5.97;;;10.70;99.90;;;;;;5057275;28;20120;-95
2023/02/19 10:58:54;;;;;;;;;;;;;;;;;;;;;
2023/02/19 11:02:01;;;;;;;17.08;6.13;;;10.70;99.90;;;;;;5042694;28;20039;-92
2023/02/19 11:05:14;;;;;;;;;;;;;;;;;;;;;
2023/02/19 11:08:59;;;;;;;;;;;;;;;;;;;;;
2023/02/19 11:12:10;;;;;;;;;;;;;;;;;;;;;
2023/02/19 11:20:58;;;;;;;10.68;5.35;;;10.90;99.90;;;;;;5081589;28;20092;-92
2023/02/19 11:23:56;;;;;;;;;;;;;;;;;;;;;
2023/02/19 11:26:51;;;;;;;14.55;4.80;;;11.00;99.90;;;;;;5083030;28;20080;-94
2023/02/19 11:33:13;;;;;;;;;;;;;;;;;;;;;
2023/02/19 11:35:58;;;;;;;8.00;2.42;;;11.00;99.90;;;;;;5097399;28;20032;-96
2023/02/19 11:39:10;;;;;;;;;;;;;;;;;;;;;
2023/02/19 11:41:59;;;;;;;11.77;3.90;;;11.00;99.90;;;;;;5084940;28;20119;-94
2023/02/19 11:45:14;;;;;;;;;;;;;;;;;;;;;
2023/02/19 11:48:21;;;;;;;8.88;4.03;;;11.00;99.90;;;;;;5106151;28;20055;-94
2023/02/19 11:54:57;;;;;;;11.48;4.10;;;11.00;99.90;;;;;;5072675;28;20032;-94
2023/02/19 11:58:00;;;;;;;;;;;;;;;;;;;;;
2023/02/19 12:01:09;;;;;;;9.82;4.32;;;10.90;99.90;;;;;;5080980;28;20110;-94
2023/02/19 12:07:18;;;;;;;10.77;4.18;;;10.80;99.90;;;;;;5053281;28;20093;-93
2023/02/19 12:10:16;;;;;;;;;;;;;;;;;;;;;
2023/02/19 12:13:42;;;;;;;8.93;4.75;;;10.80;99.90;;;;;;5057858;28;20033;-93
2023/02/19 12:20:11;;;;;;;10.10;4.20;;;10.80;99.90;;;;;;5033464;28;20103;-92
2023/02/19 12:23:22;;;;;;;10.73;3.80;;;10.80;99.90;;;;;;5015731;28;20021;-94
2023/02/19 12:26:03;;;;;;;7.95;3.55;;;10.70;99.90;;;;;;5040525;28;20028;-92
2023/02/19 12:29:10;;;;;;;8.13;3.38;;;10.70;99.90;;;;;;5100673;28;20036;-91
2023/02/19 12:32:37;;;;;;;;;;;;;;;;;;;;;
2023/02/19 12:35:43;;;;;;;;;;;;;;;;;;;;;
2023/02/19 12:38:32;;;;;;;;;;;;;;;;;;;;;
2023/02/19 12:41:32;;;;;;;7.95;3.92;;;10.70;99.90;;;;;;5075474;28;20032;-92
2023/02/19 12:44:36;;;;;;;8.77;4.07;;;10.70;99.90;;;;;;5047557;28;20040;-90
2023/02/19 12:47:42;;;;;;;;;;;;;;;;;;;;;
2023/02/19 12:50:34;;;;;;;;;;;;;;;;;;;;;
2023/02/19 12:53:37;;;;;;;7.35;4.47;;;10.70;99.90;;;;;;5058541;28;20108;-89
2023/02/19 12:56:19;;;;;;;8.55;4.65;;;10.80;99.90;;;;;;5042491;28;20193;-89
2023/02/19 12:59:11;;;;;;;8.32;4.68;;;10.80;99.90;;;;;;5041507;28;20029;-89
2023/02/19 13:02:31;;;;;;;10.13;4.80;;;10.80;99.90;;;;;;5041354;28;20025;-90
2023/02/19 13:06:02;;;;;;;;;;;;;;;;;;;;;
2023/02/19 13:09:01;;;;;;;;;;;;;;;;;;;;;
2023/02/19 13:11:40;;;;;;;9.15;4.88;;;10.90;99.90;;;;;;5061882;28;20116;-90
2023/02/19 13:14:27;;;;;;;11.32;5.20;;;10.80;99.90;;;;;;5042949;28;20037;-90
2023/02/19 13:17:28;;;;;;;;;;;;;;;;;;;;;
2023/02/19 13:24:07;;;;;;;9.15;5.38;;;10.80;99.90;;;;;;5057219;28;20040;-90
2023/02/19 13:27:10;;;;;;;8.65;5.40;;;10.80;99.90;;;;;;5057046;28;20120;-90
2023/02/19 13:30:12;;;;;;;10.80;5.32;;;10.70;99.90;;;;;;5061198;28;20024;-91
2023/02/19 13:32:51;;;;;;;8.52;5.65;;;10.80;99.90;;;;;;5060237;28;20013;-90
2023/02/19 13:36:04;;;;;;;9.40;5.38;;;10.70;99.90;;;;;;5094103;28;20036;-90
2023/02/19 13:39:02;;;;;;;7.53;5.13;;;10.70;99.90;;;;;;5060734;28;20020;-88
2023/02/19 13:41:48;;;;;;;;;;;;;;;;;;;;;
2023/02/19 13:44:54;;;;;;;8.18;5.18;;;10.80;99.90;;;;;;5077702;28;20028;-90
2023/02/19 13:47:55;;;;;;;;;;;;;;;;;;;;;
2023/02/19 13:51:19;;;;;;;10.50;6.40;;;10.80;99.90;;;;;;5078096;28;20034;-91
2023/02/19 13:53:48;;;;;;;9.35;5.57;;;10.80;99.90;;;;;;5060053;28;20035;-91
2023/02/19 13:56:36;;;;;;;11.60;6.13;;;10.80;99.90;;;;;;5076884;28;20044;-91
2023/02/19 13:59:35;;;;;;;8.98;5.60;;;10.80;99.90;;;;;;5080815;28;20025;-92
2023/02/19 14:02:08;;;;;;;11.38;5.47;;;10.80;99.90;;;;;;5060276;28;20021;-89
2023/02/19 14:05:08;;;;;;;8.73;5.75;;;10.80;99.90;;;;;;5061582;28;20048;-91
2023/02/19 14:07:49;;;;;;;11.68;6.63;;;10.80;99.90;;;;;;5059827;28;20039;-91
2023/02/19 14:10:46;;;;;;;8.88;5.30;;;10.80;99.90;;;;;;5058616;28;20048;-91
2023/02/19 14:14:05;;;;;;;;;;;;;;;;;;;;;
2023/02/19 14:16:38;;;;;;;5.10;3.13;;;10.80;99.90;;;;;;5082842;28;20417;-91
2023/02/19 14:19:15;;;;;;;6.22;3.03;;;10.80;99.90;;;;;;5063430;28;20108;-90
2023/02/19 14:21:42;;;;;;;3.63;2.33;;;10.80;99.90;;;;;;5062972;28;20044;-91
2023/02/19 14:24:20;;;;;;;5.43;2.75;;;10.80;99.90;;;;;;5061890;28;20435;-91
2023/02/19 14:26:49;;;;;;;4.32;2.33;;;10.80;99.90;;;;;;5045169;28;20037;-90
2023/02/19 14:29:20;;;;;;;3.58;1.90;;;10.80;99.90;;;;;;5061808;28;20127;-90
2023/02/19 14:31:51;;;;;;;4.70;2.45;;;10.80;99.90;;;;;;5046677;28;20025;-89
2023/02/19 14:34:22;;;;;;;6.97;2.67;;;10.90;99.90;;;;;;5047600;28;20040;-91
2023/02/19 14:37:08;;;;;;;4.47;2.40;;;10.90;99.90;;;;;;5062650;28;20406;-90
2023/02/19 14:39:37;;;;;;;5.18;2.60;;;10.90;99.90;;;;;;5061535;28;20044;-89
2023/02/19 14:42:14;;;;;;;6.82;3.10;;;10.80;99.90;;;;;;5061259;28;20031;-91
2023/02/19 14:47:59;;;;;;;5.45;3.30;;;10.90;99.90;;;;;;5091055;28;20043;-90
2023/02/19 14:57:59;;;;;;;7.72;3.97;;;10.80;99.90;;;;;;5038627;28;20032;-92
2023/02/19 15:04:04;;;;;;;7.15;3.83;;;10.60;99.90;;;;;;5025255;28;20104;-92
2023/02/19 15:06:52;;;;;;;7.03;3.47;;;10.60;99.90;;;;;;5006292;28;20018;-91
2023/02/19 15:09:20;;;;;;;5.80;3.20;;;10.60;99.90;;;;;;5013175;28;20470;-93
2023/02/19 15:11:48;;;;;;;7.50;3.30;;;10.60;99.90;;;;;;5002104;28;20105;-91
2023/02/19 15:14:31;;;;;;;;;;;;;;;;;;;;;
2023/02/19 15:21:15;;;;;;;8.70;3.00;;;10.50;99.90;;;;;;5047283;28;20549;-91
2023/02/19 15:23:42;;;;;;;6.82;3.08;;;10.40;99.90;;;;;;5082076;28;20033;-91
2023/02/19 15:26:46;;;;;;;6.88;2.80;;;10.40;99.90;;;;;;5076085;28;20021;-89
2023/02/19 15:29:14;;;;;;;7.47;3.10;;;10.40;99.90;;;;;;5061045;28;20024;-89
2023/02/19 15:31:53;;;;;;;7.50;2.85;;;10.40;99.90;;;;;;5060314;28;20033;-89
2023/02/19 15:34:28;;;;;;;7.47;2.70;;;10.40;99.90;;;;;;5058442;28;20028;-89
2023/02/19 15:37:05;;;;;;;10.65;6.60;;;10.40;99.90;;;;;;5058377;28;20021;-89
2023/02/19 15:39:38;;;;;;;7.03;3.58;;;10.40;99.90;;;;;;5059622;28;20078;-88
2023/02/19 15:42:07;;;;;;;7.82;5.32;;;10.30;99.90;;;;;;5060538;28;20382;-89
2023/02/19 15:44:38;;;;;;;7.20;5.43;;;10.30;99.90;;;;;;5058766;28;20028;-89
2023/02/19 15:47:35;;;;;;;9.13;4.40;;;10.30;99.90;;;;;;5080530;28;20025;-91
2023/02/19 15:50:14;;;;;;;7.75;4.05;;;10.30;99.90;;;;;;5058738;28;20380;-90
2023/02/19 15:52:59;;;;;;;7.60;5.45;;;10.30;99.90;;;;;;5060693;28;20092;-91
2023/02/19 15:55:52;;;;;;;6.80;3.30;;;10.20;99.90;;;;;;5060085;28;20033;-91
2023/02/19 15:58:41;;;;;;;5.97;3.30;;;10.20;99.90;;;;;;5058738;28;20020;-91
2023/02/19 16:01:56;;;;;;;7.97;6.93;;;10.20;99.90;;;;;;5058476;28;20024;-90
2023/02/19 16:04:26;;;;;;;7.68;4.45;;;10.20;99.90;;;;;;5075284;28;20070;-89
2023/02/19 16:07:00;;;;;;;6.03;3.40;;;10.10;99.90;;;;;;5058106;28;20017;-90
2023/02/19 16:09:37;;;;;;;7.05;4.85;;;10.00;99.90;;;;;;5059746;28;20028;-90
2023/02/19 16:12:22;;;;;;;8.15;6.15;;;10.10;99.90;;;;;;5075558;28;20062;-90
2023/02/19 16:14:49;;;;;;;6.80;4.35;;;10.00;99.90;;;;;;5061066;28;20024;-88
2023/02/19 16:17:26;;;;;;;8.23;4.35;;;10.00;99.90;;;;;;5040699;28;20119;-89
2023/02/19 16:20:01;;;;;;;6.70;5.30;;;9.90;99.90;;;;;;5061103;28;20054;-89
2023/02/19 16:22:32;;;;;;;9.85;6.20;;;9.90;99.90;;;;;;5058091;28;20025;-89
2023/02/19 16:24:59;;;;;;;;;;;9.90;99.90;;;;;;5058548;28;20445;-89
2023/02/19 16:27:45;;;;;;;10.70;7.13;;;9.90;99.90;;;;;;5059425;28;19999;-89
2023/02/19 16:30:38;;;;;;;9.88;5.78;;;9.90;99.90;;;;;;5079047;28;20024;-89
2023/02/19 16:33:30;;;;;;;8.95;7.07;;;9.90;99.90;;;;;;5061912;28;20028;-89
2023/02/19 16:36:00;;;;;;;8.27;4.55;;;9.80;99.90;;;;;;5066123;28;20376;-89
2023/02/19 16:38:34;;;;;;;10.13;5.85;;;9.80;99.90;;;;;;5062105;28;20384;-90
2023/02/19 16:41:26;;;;;;;8.85;5.75;;;9.80;99.90;;;;;;5063399;28;20028;-90
2023/02/19 16:43:51;;;;;;;20.30;15.82;;;9.80;99.90;;;;;;5060896;28;20025;-89
2023/02/19 16:46:26;;;;;;;20.05;16.30;;;9.80;99.90;;;;;;5061918;28;20029;-89
2023/02/19 16:48:53;;;;;;;12.48;10.77;;;9.80;99.90;;;;;;5061490;28;20110;-89
2023/02/19 16:51:28;;;;;;;10.90;9.30;;;9.80;99.90;;;;;;5062149;28;20027;-90
2023/02/19 16:57:16;;;;;;;8.13;5.57;;;9.70;99.90;;;;;;5079906;28;20023;-89
2023/02/19 16:59:42;;;;;;;10.32;6.60;;;9.70;99.90;;;;;;5045350;28;20028;-90
2023/02/19 17:02:16;;;;;;;10.50;7.30;;;9.70;99.90;;;;;;5062017;28;20123;-90
2023/02/19 17:04:50;;;;;;;10.98;7.40;;;9.60;99.90;;;;;;5061495;28;20051;-90
2023/02/19 17:07:21;;;;;;;12.10;5.88;;;9.70;99.90;;;;;;5060474;28;20094;-89
2023/02/19 17:09:50;;;;;;;10.25;6.43;;;9.60;99.90;;;;;;5060768;28;20028;-90
2023/02/19 17:12:18;;;;;;;11.23;7.32;;;9.60;99.90;;;;;;5061724;28;20480;-92
2023/02/19 17:14:46;;;;;;;8.00;5.00;;;9.60;99.90;;;;;;5079850;28;20025;-90
2023/02/19 17:17:18;;;;;;;9.10;5.53;;;9.60;99.90;;;;;;5045189;28;20035;-92
2023/02/19 17:20:06;;;;;;;13.07;8.80;;;9.60;99.90;;;;;;5045852;28;20559;-92
2023/02/19 17:22:43;;;;;;;10.70;6.50;;;9.60;99.90;;;;;;5060883;28;20032;-94
2023/02/19 17:25:14;;;;;;;10.13;4.18;;;9.60;99.90;;;;;;5061554;28;20024;-93
2023/02/19 17:27:45;;;;;;;6.85;4.28;;;9.60;99.90;;;;;;5061454;28;20025;-95
2023/02/19 17:30:26;;;;;;;7.95;4.43;;;9.50;99.90;;;;;;5065111;28;20021;-95
2023/02/19 17:32:55;;;;;;;9.68;5.13;;;9.50;99.90;;;;;;5079567;28;20052;-92
2023/02/19 17:35:21;;;;;;;7.60;4.53;;;9.50;99.90;;;;;;5067959;28;20029;-92
2023/02/19 17:37:47;;;;;;;14.23;10.30;;;9.50;99.90;;;;;;5061030;28;20082;-93
2023/02/19 17:40:25;;;;;;;10.55;7.35;;;9.50;99.90;;;;;;5060769;28;20028;-91
2023/02/19 17:42:53;;;;;;;7.40;4.72;;;9.50;99.90;;;;;;5062072;28;20016;-93
2023/02/19 17:45:22;;;;;;;12.73;8.10;;;9.50;99.90;;;;;;5045625;28;20046;-93
2023/02/19 17:55:27;;;;;;;28.95;18.33;;;9.40;99.90;;;;;;5077177;28;20474;-93
2023/02/19 17:57:54;;;;;;;25.83;16.77;;;9.40;99.90;;;;;;5078622;28;20070;-90
2023/02/19 18:00:28;;;;;;;21.27;11.38;;;9.30;99.90;;;;;;5060624;28;20025;-89
2023/02/19 18:03:07;;;;;;;36.97;22.30;;;9.30;99.90;;;;;;5078418;28;20036;-94
2023/02/19 18:05:33;;;;;;;19.38;11.57;;;9.30;99.90;;;;;;5044858;28;20043;-91
2023/02/19 18:07:59;;;;;;;20.85;13.82;;;9.30;99.90;;;;;;5061269;28;20021;-89
2023/02/19 18:10:29;;;;;;;10.82;6.70;;;9.30;99.90;;;;;;5061389;28;20375;-89
2023/02/19 18:12:57;;;;;;;14.30;8.45;;;9.30;99.90;;;;;;5061493;28;20032;-89
2023/02/19 18:15:25;;;;;;;16.67;11.18;;;9.30;99.90;;;;;;5060715;28;20460;-89
2023/02/19 18:17:52;;;;;;;11.13;7.85;;;9.30;99.90;;;;;;5061746;28;20024;-90
2023/02/19 18:20:23;;;;;;;13.07;7.20;;;9.30;99.90;;;;;;5064998;28;20049;-90
2023/02/19 18:22:51;;;;;;;12.82;9.98;;;9.20;99.90;;;;;;5080098;28;20032;-89
2023/02/19 18:25:20;;;;;;;9.60;6.25;;;9.20;99.90;;;;;;5082322;28;20012;-92
2023/02/19 18:27:46;;;;;;;8.98;6.25;;;9.20;99.90;;;;;;5082624;28;20035;-90
2023/02/19 18:30:17;;;;;;;8.35;5.47;;;9.20;99.90;;;;;;5078041;28;20034;-91
2023/02/19 18:32:46;;;;;;;7.80;5.32;;;9.20;99.90;;;;;;5079730;28;20015;-89
2023/02/19 18:35:12;;;;;;;10.10;5.90;;;9.10;99.90;;;;;;5082652;28;20055;-89
2023/02/19 18:37:59;;;;;;;;;;;;;;;;;;;;;
2023/02/19 18:47:16;;;;;;;7.90;5.57;;;9.00;99.90;;;;;;5085379;28;20119;-93
2023/02/19 18:57:43;;;;;;;6.63;3.85;;;9.00;99.90;;;;;;4957654;29;20051;-94
2023/02/19 19:00:19;;;;;;;6.03;3.85;;;9.00;99.90;;;;;;4932873;29;20048;-93
2023/02/19 19:07:06;;;;;;;;;;;;;;;;;;;;;
2023/02/19 19:13:10;;;;;;;;;;;;;;;;;;;;;
2023/02/19 19:18:41;;;;;;;4.15;2.30;;;8.80;99.90;;;;;;5046974;28;20029;-91
2023/02/19 19:21:15;;;;;;;;;;;8.80;99.90;;;;;;5062314;28;20055;-92
2023/02/19 19:24:04;;;;;;;;;;;;;;;;;;;;;
2023/02/19 19:27:12;;;;;;;;;;;;;;;;;;;;;
2023/02/19 19:33:09;;;;;;;;;;;;;;;;;;;;;
2023/02/19 19:38:43;;;;;;;9.05;4.68;;;8.60;99.90;;;;;;5077790;28;20028;-92
2023/02/19 19:41:18;;;;;;;5.13;3.22;;;8.60;99.90;;;;;;5060285;28;20035;-92
2023/02/19 19:44:17;;;;;;;8.30;5.13;;;8.50;99.90;;;;;;5071457;28;20021;-91
2023/02/19 19:46:54;;;;;;;6.63;4.30;;;8.50;99.90;;;;;;5043961;28;20170;-92
2023/02/19 19:49:23;;;;;;;8.68;5.63;;;8.50;99.90;;;;;;5061556;28;20025;-91
2023/02/19 19:52:02;;;;;;;;;;;;;;;;;;;;;
2023/02/19 19:54:54;;;;;;;;;;;;;;;;;;;;;
2023/02/19 19:57:59;;;;;;;15.20;9.15;;;8.40;99.90;;;;;;5065513;28;20123;-91
2023/02/19 20:00:36;;;;;;;7.20;4.20;;;8.40;99.90;;;;;;5048747;28;20025;-93
2023/02/19 20:03:12;;;;;;;5.38;3.55;;;8.40;99.90;;;;;;5058133;28;20021;-94
2023/02/19 20:05:44;;;;;;;23.73;12.95;;;8.40;99.90;;;;;;5043042;28;20063;-93
2023/02/19 20:08:13;;;;;;;8.27;4.32;;;8.40;99.90;;;;;;5058587;28;20052;-92
2023/02/19 20:11:32;;;;;;;8.98;4.50;;;8.30;99.90;;;;;;5041194;28;20040;-96
2023/02/19 20:14:03;;;;;;;8.98;4.55;;;8.20;99.90;;;;;;5033700;28;20036;-94
2023/02/19 20:27:45;;;;;;;5.25;2.75;;;8.10;99.90;;;;;;5015555;28;20390;-92
2023/02/19 20:37:52;;;;;;;5.30;3.50;;;7.90;99.90;;;;;;4996037;28;20126;-92
2023/02/19 20:44:28;;;;;;;6.30;4.13;;;7.80;99.90;;;;;;5076476;28;20070;-94
2023/02/19 21:14:54;;;;;;;12.52;7.68;;;7.50;99.90;;;;;;4998018;28;20026;-91
2023/02/19 21:28:07;;;;;;;9.35;6.90;;;7.30;99.90;;;;;;4989187;28;20092;-92
2023/02/19 21:34:10;;;;;;;10.80;6.63;;;7.30;99.90;;;;;;4979577;28;20034;-92
2023/02/19 21:37:02;;;;;;;8.65;6.10;;;7.20;99.90;;;;;;4968791;28;20030;-94
2023/02/19 21:40:24;;;;;;;;;;;;;;;;;;;;;
2023/02/19 21:43:44;;;;;;;7.35;5.18;;;7.10;99.90;;;;;;5022169;28;20100;-94
2023/02/19 21:53:56;;;;;;;7.90;5.10;;;7.00;99.90;;;;;;5058633;28;20029;-94
2023/02/19 21:57:14;;;;;;;;;;;;;;;;;;;;;
2023/02/19 22:00:26;;;;;;;;;;;;;;;;;;;;;
2023/02/19 22:03:33;;;;;;;;;;;;;;;;;;;;;
2023/02/19 22:06:57;;;;;;;;;;;;;;;;;;;;;
2023/02/19 22:20:37;;;;;;;;;;;;;;;;;;;;;
2023/02/19 22:23:00;;;;;;;9.23;5.43;;;6.80;99.90;;;;;;4957391;28;20039;-93
2023/02/19 22:26:12;;;;;;;8.30;5.07;;;6.80;99.90;;;;;;4942151;29;20523;-92
2023/02/19 22:29:08;;;;;;;;;;;;;;;;;;;;;
2023/02/19 22:35:17;;;;;;;;;;;;;;;;;;;;;
2023/02/19 22:41:29;;;;;;;;;;;6.80;99.90;;;;;;4938825;29;20075;-93
2023/02/19 22:44:25;;;;;;;;;;;;;;;;;;;;;
2023/02/19 22:47:43;;;;;;;9.00;5.72;;;6.70;99.90;;;;;;5045509;28;20104;-93
2023/02/19 22:54:48;;;;;;;10.45;5.43;;;6.70;99.90;;;;;;4990298;28;20281;-93
2023/02/19 22:57:31;;;;;;;;;;;;;;;;;;;;;
2023/02/19 23:00:36;;;;;;;9.25;5.25;;;6.70;99.90;;;;;;5059010;28;20112;-94
2023/02/19 23:03:01;;;;;;;11.85;5.95;;;6.60;99.90;;;;;;5040747;28;20032;-94
2023/02/19 23:05:32;;;;;;;9.93;5.63;;;6.60;99.90;;;;;;5040156;28;20033;-95
2023/02/19 23:07:58;;;;;;;;;;;6.60;99.90;;;;;;5041788;28;20021;-94
2023/02/19 23:10:24;;;;;;;10.15;5.15;;;6.60;99.90;;;;;;5039017;28;19912;-93
2023/02/19 23:12:50;;;;;;;10.48;6.15;;;6.60;99.90;;;;;;5039996;28;20021;-94
2023/02/19 23:15:16;;;;;;;10.93;5.55;;;6.60;99.90;;;;;;5056885;28;20033;-93
2023/02/19 23:17:49;;;;;;;11.48;6.15;;;6.60;99.90;;;;;;5055731;28;20021;-95
2023/02/19 23:20:27;;;;;;;10.35;6.18;;;6.60;99.90;;;;;;5022967;28;20119;-95
2023/02/19 23:23:10;;;;;;;11.48;6.88;;;6.60;99.90;;;;;;5024462;28;20067;-94
2023/02/19 23:25:43;;;;;;;14.27;7.57;;;6.60;99.90;;;;;;5043525;28;20040;-95
2023/02/19 23:28:20;;;;;;;14.95;7.20;;;6.60;99.90;;;;;;5041757;28;20468;-94
2023/02/19 23:30:53;;;;;;;18.67;9.70;;;6.60;99.90;;;;;;5043815;28;20460;-94
2023/02/19 23:34:00;;;;;;;13.77;8.85;;;6.60;99.90;;;;;;5041721;28;20032;-96
2023/02/19 23:36:38;;;;;;;15.00;8.77;;;6.60;99.90;;;;;;5058119;28;20040;-94
2023/02/19 23:42:23;;;;;;;18.05;10.10;;;6.60;99.90;;;;;;4976134;28;20049;-95
2023/02/19 23:44:54;;;;;;;16.63;9.75;;;6.60;99.90;;;;;;5058803;28;20055;-95
2023/02/19 23:47:28;;;;;;;18.45;11.13;;;6.60;99.90;;;;;;5042403;28;20032;-95
2023/02/19 23:50:16;;;;;;;18.83;11.30;;;6.70;99.90;;;;;;5062802;28;20100;-94
2023/02/19 23:53:02;;;;;;;23.27;11.93;;;6.70;99.90;;;;;;5066785;28;20027;-96
2023/02/19 23:55:36;;;;;;;16.73;10.88;;;6.70;99.90;;;;;;5078800;28;20031;-94
2023/02/19 23:58:05;;;;;;;20.67;11.88;;;6.70;99.90;;;;;;5058982;28;20020;-94
